Погода Прогресона неделю

Нижняя Калифорния, Мексика

23 - 29 июля
  • 23июля
    Сегодня
    +31°
    +44°
    Практически безоблачно
    ВремяПогодаТемператураВлажностьДавлениеВетер, м/сВероятность осадков
    02:00Ясно и безоблачно+35°C29 %754 мм1.9 м/с1 %
    05:00Ясно и безоблачно+33°C33 %755 мм0.2 м/с1 %
    08:00Ясно и безоблачно+34°C30 %756 мм1.3 м/с1 %
    11:00Ясно и безоблачно+39°C22 %756 мм2.0 м/с1 %
    14:00Практически безоблачно+43°C17 %755 мм2.8 м/с1 %
    17:00Практически безоблачно+44°C16 %754 мм2.8 м/с1 %
    20:00Практически безоблачно+40°C18 %755 мм3.8 м/с1 %
    23:00Ясно и безоблачно+36°C27 %757 мм4.4 м/с1 %
  • 24июля
    Среда
    +31°
    +45°
    Практически безоблачно
    ВремяПогодаТемператураВлажностьДавлениеВетер, м/сВероятность осадков
    02:00Ясно и безоблачно+35°C31 %757 мм1.5 м/с1 %
    05:00Ясно и безоблачно+33°C33 %757 мм0.6 м/с1 %
    08:00Ясно и безоблачно+34°C30 %759 мм1.9 м/с1 %
    11:00Ясно и безоблачно+40°C20 %759 мм1.9 м/с1 %
    14:00Практически безоблачно+43°C17 %757 мм2.8 м/с2 %
    17:00Практически безоблачно+44°C15 %756 мм4.7 м/с2 %
    20:00Небольшая облачность+41°C19 %757 мм2.0 м/с1 %
    23:00Небольшая облачность+36°C30 %758 мм4.4 м/с1 %
  • 25июля
    Четверг
    +31°
    +46°
    Ясно и безоблачно
    ВремяПогодаТемператураВлажностьДавлениеВетер, м/сВероятность осадков
    02:00Ясно и безоблачно+35°C37 %758 мм1.1 м/с1 %
    05:00Ясно и безоблачно+32°C35 %758 мм1.2 м/с1 %
    08:00Ясно и безоблачно+34°C26 %759 мм0.7 м/с1 %
    11:00Ясно и безоблачно+40°C17 %759 мм0.4 м/с1 %
    14:00Ясно и безоблачно+44°C13 %756 мм2.2 м/с1 %
    17:00Ясно и безоблачно+45°C12 %754 мм4.2 м/с1 %
    20:00Ясно и безоблачно+40°C20 %755 мм3.2 м/с1 %
    23:00Ясно и безоблачно+37°C29 %757 мм2.4 м/с1 %
  • 26июля
    Пятница
    +28°
    +46°
    Ясно и безоблачно
    ВремяПогодаТемператураВлажностьДавлениеВетер, м/сВероятность осадков
    02:00Ясно и безоблачно+35°C35 %756 мм0.3 м/с1 %
    05:00Ясно и безоблачно+32°C39 %755 мм0.7 м/с1 %
    08:00Ясно и безоблачно+33°C30 %756 мм0.5 м/с1 %
    11:00Ясно и безоблачно+40°C16 %755 мм0.5 м/с1 %
    14:00Ясно и безоблачно+44°C11 %753 мм1.3 м/с1 %
    17:00Ясно и безоблачно+45°C10 %751 мм5.9 м/с1 %
    20:00Небольшая облачность+40°C16 %753 мм1.1 м/с2 %
    23:00Ясно и безоблачно+35°C30 %754 мм1.6 м/с1 %
Мы используем cookies
Соглашаюсь